createdAt,value
2024-03-31T00:00:35.500Z,13.10
2024-03-31T00:03:25.249Z,14.30
2024-03-31T00:05:58.602Z,7.20
2024-03-31T00:08:28.349Z,16.10
2024-03-31T00:11:02.406Z,12.40
2024-03-31T00:13:31.977Z,14.40
2024-03-31T00:16:01.607Z,11.90
2024-03-31T00:18:31.222Z,15.70
2024-03-31T00:21:01.177Z,17.00
2024-03-31T00:23:30.806Z,18.70
2024-03-31T00:26:01.501Z,13.10
2024-03-31T00:28:31.108Z,12.40
2024-03-31T00:31:01.602Z,13.00
2024-03-31T00:33:31.050Z,14.00
2024-03-31T00:36:00.712Z,12.50
2024-03-31T00:38:30.431Z,11.10
2024-03-31T00:41:00.190Z,14.50
2024-03-31T00:43:29.888Z,9.40
2024-03-31T00:45:59.550Z,11.20
2024-03-31T00:48:29.268Z,12.70
2024-03-31T00:50:58.820Z,12.40
2024-03-31T00:53:29.255Z,12.40
2024-03-31T00:56:02.016Z,12.30
2024-03-31T00:58:31.790Z,13.20
2024-03-31T01:01:01.510Z,10.80
2024-03-31T01:03:32.565Z,13.50
2024-03-31T01:06:22.928Z,8.40
2024-03-31T01:08:54.252Z,11.70
2024-03-31T01:11:25.138Z,14.30
2024-03-31T01:13:56.884Z,10.40
2024-03-31T01:16:27.734Z,17.50
2024-03-31T01:18:57.349Z,9.20
2024-03-31T01:21:29.318Z,14.00
2024-03-31T01:24:01.153Z,11.90
2024-03-31T01:26:31.640Z,15.90
2024-03-31T01:29:01.249Z,16.70
2024-03-31T01:31:31.338Z,17.30
2024-03-31T01:34:01.493Z,15.30
2024-03-31T01:36:30.945Z,16.60
2024-03-31T01:39:05.369Z,11.80
2024-03-31T01:41:37.529Z,19.80
2024-03-31T01:44:07.400Z,16.30
2024-03-31T01:46:36.929Z,12.00
2024-03-31T01:49:06.487Z,17.20
2024-03-31T01:51:36.543Z,10.90
2024-03-31T01:54:06.929Z,10.30
2024-03-31T01:56:38.637Z,13.20
2024-03-31T01:59:08.349Z,9.00
2024-03-31T02:01:37.936Z,12.20
2024-03-31T02:04:07.597Z,11.10
2024-03-31T02:06:37.124Z,12.30
2024-03-31T02:09:06.565Z,12.10
2024-03-31T02:11:36.167Z,14.60
2024-03-31T02:14:05.751Z,14.20
2024-03-31T02:16:38.439Z,17.80
2024-03-31T02:19:07.890Z,22.50
2024-03-31T02:21:37.550Z,24.40
2024-03-31T02:24:07.600Z,16.60
2024-03-31T02:26:37.172Z,14.10
2024-03-31T02:29:06.615Z,20.80
2024-03-31T02:31:36.165Z,22.90
2024-03-31T02:34:06.779Z,13.90
2024-03-31T02:36:37.091Z,16.80
2024-03-31T02:39:07.841Z,19.00
2024-03-31T02:41:37.811Z,18.10
2024-03-31T02:44:07.266Z,20.20
2024-03-31T02:46:36.888Z,17.30
2024-03-31T02:49:07.258Z,13.90
2024-03-31T02:51:37.338Z,18.40
2024-03-31T02:54:07.237Z,15.50
2024-03-31T02:56:37.674Z,15.70
2024-03-31T02:59:07.464Z,14.60
2024-03-31T03:01:37.342Z,10.50
2024-03-31T03:04:06.934Z,16.80
2024-03-31T03:06:36.549Z,15.40
2024-03-31T03:09:07.493Z,19.70
2024-03-31T03:11:37.125Z,17.00
2024-03-31T03:14:06.591Z,18.10
2024-03-31T03:16:36.250Z,17.70
2024-03-31T03:19:07.236Z,13.70
2024-03-31T03:21:36.962Z,14.00
2024-03-31T03:24:07.502Z,14.30
2024-03-31T03:26:38.222Z,14.90
2024-03-31T03:29:09.044Z,14.40
2024-03-31T03:31:38.555Z,17.40
2024-03-31T03:34:09.846Z,10.60
2024-03-31T03:36:39.551Z,15.50
2024-03-31T03:39:09.158Z,19.20
2024-03-31T03:41:39.135Z,12.10
2024-03-31T03:44:08.748Z,13.20
2024-03-31T03:46:38.634Z,9.10
2024-03-31T03:49:08.366Z,16.40
2024-03-31T03:51:40.083Z,15.10
2024-03-31T03:54:09.727Z,16.70
2024-03-31T03:56:42.349Z,20.80
2024-03-31T03:59:14.093Z,18.70
2024-03-31T04:01:43.966Z,18.00
2024-03-31T04:04:13.594Z,23.30
2024-03-31T04:06:44.942Z,12.70
2024-03-31T04:09:14.801Z,18.30
2024-03-31T04:11:44.297Z,14.70
2024-03-31T04:14:13.876Z,16.40
2024-03-31T04:16:43.575Z,12.50
2024-03-31T04:19:13.086Z,16.90
2024-03-31T04:21:42.775Z,13.60
2024-03-31T04:24:12.342Z,15.20
2024-03-31T04:26:41.918Z,15.20
2024-03-31T04:29:11.421Z,17.50
2024-03-31T04:31:58.310Z,14.20
2024-03-31T04:34:31.842Z,18.50
2024-03-31T04:37:02.448Z,17.40
2024-03-31T04:39:32.049Z,11.60
2024-03-31T04:42:01.754Z,27.00
2024-03-31T04:44:31.335Z,18.40
2024-03-31T04:47:01.654Z,13.60
2024-03-31T04:49:31.647Z,15.70
2024-03-31T04:52:02.174Z,10.80
2024-03-31T04:54:33.449Z,12.10
2024-03-31T04:57:03.366Z,15.10
2024-03-31T04:59:33.080Z,18.30
2024-03-31T05:02:02.719Z,17.00
2024-03-31T05:04:33.968Z,15.60
2024-03-31T05:07:03.507Z,17.30
2024-03-31T05:09:35.865Z,22.70
2024-03-31T05:12:05.743Z,30.30
2024-03-31T05:14:35.514Z,30.30
2024-03-31T05:17:05.826Z,20.80
2024-03-31T05:19:35.630Z,15.60
2024-03-31T05:22:06.833Z,17.30
2024-03-31T05:24:37.641Z,19.80
2024-03-31T05:27:07.517Z,18.20
2024-03-31T05:29:37.014Z,20.40
2024-03-31T05:32:09.154Z,21.70
2024-03-31T05:34:49.129Z,25.30
2024-03-31T05:37:18.938Z,18.90
2024-03-31T05:39:48.630Z,19.90
2024-03-31T05:42:19.780Z,24.60
2024-03-31T05:44:50.798Z,19.30
2024-03-31T05:47:21.568Z,42.00
2024-03-31T05:49:51.793Z,41.40
2024-03-31T05:52:23.906Z,31.80
2024-03-31T05:54:53.863Z,29.50
2024-03-31T05:57:23.801Z,42.80
2024-03-31T05:59:55.452Z,25.70
2024-03-31T06:02:25.566Z,41.50
2024-03-31T06:04:59.067Z,32.20
2024-03-31T06:07:31.086Z,28.20
2024-03-31T06:10:01.398Z,34.40
2024-03-31T06:12:32.636Z,38.80
2024-03-31T06:15:04.479Z,19.90
2024-03-31T06:17:36.404Z,28.30
2024-03-31T06:20:10.227Z,21.60
2024-03-31T06:22:43.673Z,19.50
2024-03-31T06:25:13.782Z,19.60
2024-03-31T06:27:43.586Z,17.40
2024-03-31T06:30:13.388Z,18.30
2024-03-31T06:32:44.565Z,15.80
2024-03-31T06:35:14.466Z,14.10
2024-03-31T06:37:44.104Z,14.70
2024-03-31T06:40:14.206Z,17.20
2024-03-31T06:42:43.842Z,13.50
2024-03-31T06:45:17.210Z,12.50
2024-03-31T06:47:47.027Z,12.60
2024-03-31T06:50:17.195Z,14.80
2024-03-31T06:52:46.854Z,12.80
2024-03-31T06:55:17.273Z,8.80
2024-03-31T06:57:47.460Z,11.10
2024-03-31T07:00:18.308Z,12.00
2024-03-31T07:02:51.332Z,16.00
2024-03-31T07:05:22.658Z,11.60
2024-03-31T07:07:53.297Z,17.70
2024-03-31T07:10:25.210Z,13.10
2024-03-31T07:12:57.384Z,13.20
2024-03-31T07:15:27.440Z,15.40
2024-03-31T07:18:11.377Z,10.30
2024-03-31T07:20:42.008Z,10.70
2024-03-31T07:23:12.249Z,13.80
2024-03-31T07:25:42.417Z,8.90
2024-03-31T07:28:15.887Z,12.60
2024-03-31T07:30:47.141Z,14.00
2024-03-31T07:33:18.085Z,17.40
2024-03-31T07:35:49.664Z,15.80
2024-03-31T07:38:22.510Z,11.40
2024-03-31T07:40:52.873Z,11.70
2024-03-31T07:43:25.386Z,12.90
2024-03-31T07:45:56.430Z,13.40
2024-03-31T07:48:26.789Z,13.40
2024-03-31T07:50:56.466Z,15.50
2024-03-31T07:53:27.977Z,10.50
2024-03-31T07:56:10.823Z,9.80
2024-03-31T07:58:41.441Z,10.20
2024-03-31T08:01:12.993Z,7.40
2024-03-31T08:03:44.794Z,11.40
2024-03-31T08:06:15.029Z,16.50
2024-03-31T08:09:36.993Z,13.10
2024-03-31T08:14:41.971Z,15.30
2024-03-31T08:17:11.801Z,11.60
2024-03-31T08:19:41.289Z,11.90
2024-03-31T08:22:12.465Z,12.40
2024-03-31T08:24:42.649Z,14.30
2024-03-31T08:27:14.961Z,18.90
2024-03-31T08:29:44.625Z,14.70
2024-03-31T08:32:15.058Z,9.80
2024-03-31T08:34:47.899Z,11.80
2024-03-31T08:37:23.703Z,13.10
2024-03-31T08:39:53.316Z,10.30
2024-03-31T08:42:44.865Z,12.70
2024-03-31T08:45:14.953Z,14.10
2024-03-31T08:47:46.059Z,12.00
2024-03-31T08:50:15.699Z,13.10
2024-03-31T08:52:45.200Z,10.30
2024-03-31T08:55:15.175Z,11.80
2024-03-31T08:57:46.017Z,10.70
2024-03-31T09:00:55.996Z,13.20
2024-03-31T09:03:28.629Z,9.40
2024-03-31T09:06:00.185Z,12.50
2024-03-31T09:08:39.866Z,11.90
2024-03-31T09:11:11.736Z,12.70
2024-03-31T09:13:43.959Z,9.10
2024-03-31T09:16:13.890Z,12.70
2024-03-31T09:18:45.598Z,17.40
2024-03-31T09:21:15.179Z,11.70
2024-03-31T09:23:44.926Z,8.70
2024-03-31T09:26:15.952Z,11.20
2024-03-31T09:28:46.045Z,11.50
2024-03-31T09:31:22.519Z,11.10
2024-03-31T09:33:53.497Z,11.10
2024-03-31T09:36:23.449Z,14.00
2024-03-31T09:38:55.622Z,11.30
2024-03-31T09:41:39.866Z,13.00
2024-03-31T09:44:09.435Z,17.70
2024-03-31T09:46:39.187Z,11.70
2024-03-31T09:49:15.081Z,12.10
2024-03-31T09:51:51.099Z,11.50
2024-03-31T09:54:35.562Z,10.10
2024-03-31T09:57:13.831Z,10.80
2024-03-31T09:59:58.986Z,11.10
2024-03-31T10:02:34.158Z,11.20
2024-03-31T10:05:45.521Z,10.40
2024-03-31T10:08:35.306Z,12.30
2024-03-31T10:11:06.676Z,10.10
2024-03-31T10:13:38.614Z,7.40
2024-03-31T10:16:10.802Z,7.60
2024-03-31T10:18:41.927Z,11.80
2024-03-31T10:21:13.251Z,10.40
2024-03-31T10:23:48.088Z,10.10
2024-03-31T10:26:18.792Z,7.80
2024-03-31T10:28:51.082Z,12.70
2024-03-31T10:31:21.905Z,10.70
2024-03-31T10:33:51.835Z,9.00
2024-03-31T10:36:22.713Z,9.20
2024-03-31T10:38:52.335Z,13.60
2024-03-31T10:41:22.898Z,11.30
2024-03-31T10:43:57.773Z,12.00
2024-03-31T10:46:28.034Z,8.50
2024-03-31T10:48:58.561Z,7.70
2024-03-31T10:51:29.245Z,11.40
2024-03-31T10:54:20.768Z,9.10
2024-03-31T10:57:00.218Z,5.40
2024-03-31T10:59:32.304Z,6.20
2024-03-31T11:02:26.343Z,5.80
2024-03-31T11:05:17.915Z,10.30
2024-03-31T11:08:03.087Z,10.20
2024-03-31T11:11:14.193Z,10.30
2024-03-31T11:14:19.192Z,6.40
2024-03-31T11:16:50.695Z,8.30
2024-03-31T11:19:23.427Z,9.50
2024-03-31T11:22:07.421Z,9.50
2024-03-31T11:24:39.464Z,8.60
2024-03-31T11:27:10.778Z,3.90
2024-03-31T11:29:43.304Z,9.80
2024-03-31T11:32:34.858Z,7.50
2024-03-31T11:35:43.406Z,7.30
2024-03-31T11:38:24.638Z,8.70
2024-03-31T11:40:55.024Z,8.50
2024-03-31T11:43:46.813Z,8.10
2024-03-31T11:46:23.290Z,7.80
2024-03-31T11:49:00.733Z,4.70
2024-03-31T11:51:39.375Z,6.90
2024-03-31T11:54:11.256Z,7.40
2024-03-31T11:56:43.664Z,12.90
2024-03-31T11:59:22.003Z,5.90
2024-03-31T12:02:03.123Z,6.70
2024-03-31T12:04:38.053Z,10.90
2024-03-31T12:07:08.913Z,6.80
2024-03-31T12:09:43.985Z,13.90
2024-03-31T12:12:37.637Z,5.50
2024-03-31T12:15:16.050Z,7.40
2024-03-31T12:18:03.444Z,7.20
2024-03-31T12:20:38.205Z,5.70
2024-03-31T12:23:10.426Z,4.70
2024-03-31T12:25:44.832Z,4.90
2024-03-31T12:28:32.938Z,6.10
2024-03-31T12:31:21.762Z,5.00
2024-03-31T12:35:25.856Z,8.00
2024-03-31T12:46:40.457Z,10.70
2024-03-31T12:49:56.637Z,9.40
2024-03-31T12:52:48.198Z,4.60
2024-03-31T12:55:29.318Z,3.50
2024-03-31T12:58:04.205Z,8.00
2024-03-31T13:00:44.859Z,5.90
2024-03-31T13:03:56.897Z,7.90
2024-03-31T13:06:44.019Z,8.10
2024-03-31T13:09:24.821Z,11.20
2024-03-31T13:11:55.781Z,4.70
2024-03-31T13:14:28.077Z,4.70
2024-03-31T13:17:01.378Z,6.10
2024-03-31T13:19:32.365Z,6.40
2024-03-31T13:22:06.144Z,10.40
2024-03-31T13:24:40.585Z,3.70
2024-03-31T13:27:12.989Z,5.70
2024-03-31T13:29:46.954Z,5.60
2024-03-31T13:32:17.775Z,4.50
2024-03-31T13:34:47.290Z,7.10
2024-03-31T13:37:16.918Z,6.70
2024-03-31T13:39:46.685Z,2.90
2024-03-31T13:42:16.586Z,5.30
2024-03-31T13:44:46.569Z,4.60
2024-03-31T13:47:17.445Z,11.60
2024-03-31T13:49:47.472Z,6.70
2024-03-31T13:52:17.911Z,5.70
2024-03-31T13:54:48.625Z,3.70
2024-03-31T13:57:18.334Z,3.80
2024-03-31T13:59:47.969Z,3.20
2024-03-31T14:02:18.446Z,5.40
2024-03-31T14:04:48.368Z,6.80
2024-03-31T14:07:18.931Z,6.70
2024-03-31T14:09:48.523Z,7.20
2024-03-31T14:12:20.248Z,7.70
2024-03-31T14:14:50.920Z,6.10
2024-03-31T14:17:20.932Z,10.60
2024-03-31T14:19:52.711Z,5.00
2024-03-31T14:22:24.455Z,5.60
2024-03-31T14:24:54.177Z,10.30
2024-03-31T14:27:23.725Z,7.10
2024-03-31T14:29:53.452Z,10.50
2024-03-31T14:32:22.989Z,6.70
2024-03-31T14:34:52.740Z,6.40
2024-03-31T14:37:22.283Z,7.00
2024-03-31T14:39:52.227Z,8.00
2024-03-31T14:42:24.670Z,7.90
2024-03-31T14:44:54.969Z,6.20
2024-03-31T14:47:28.558Z,10.90
2024-03-31T14:49:58.382Z,7.20
2024-03-31T14:52:28.104Z,6.20
2024-03-31T14:54:57.780Z,17.10
2024-03-31T14:57:29.278Z,6.20
2024-03-31T15:00:06.523Z,8.00
2024-03-31T15:03:02.681Z,5.20
2024-03-31T15:05:32.730Z,6.10
2024-03-31T15:08:14.231Z,6.60
2024-03-31T15:10:54.670Z,11.30
2024-03-31T15:13:26.976Z,7.20
2024-03-31T15:16:10.382Z,10.40
2024-03-31T15:18:53.576Z,10.20
2024-03-31T15:22:10.877Z,7.50
2024-03-31T15:24:46.993Z,13.30
2024-03-31T15:27:45.382Z,10.30
2024-03-31T15:30:16.386Z,4.50
2024-03-31T15:32:47.316Z,9.90
2024-03-31T15:35:19.267Z,6.50
2024-03-31T15:37:50.900Z,12.20
2024-03-31T15:40:26.545Z,8.40
2024-03-31T15:42:57.250Z,15.10
2024-03-31T15:45:28.445Z,7.90
2024-03-31T15:47:58.187Z,10.20
2024-03-31T15:50:29.037Z,7.60
2024-03-31T15:52:58.505Z,6.40
2024-03-31T15:55:28.195Z,7.60
2024-03-31T15:57:57.595Z,10.80
2024-03-31T16:00:27.812Z,10.10
2024-03-31T16:02:57.381Z,12.90
2024-03-31T16:05:28.067Z,12.50
2024-03-31T16:07:57.437Z,13.30
2024-03-31T16:10:27.102Z,9.90
2024-03-31T16:12:56.998Z,9.70
2024-03-31T16:15:27.188Z,10.70
2024-03-31T16:17:56.869Z,11.70
2024-03-31T16:20:26.690Z,13.20
2024-03-31T16:22:56.284Z,11.10
2024-03-31T16:25:25.938Z,11.30
2024-03-31T16:27:55.540Z,13.40
2024-03-31T16:30:25.212Z,10.30
2024-03-31T16:32:54.808Z,9.20
2024-03-31T16:35:24.365Z,11.60
2024-03-31T16:37:54.530Z,9.00
2024-03-31T16:40:24.261Z,7.40
2024-03-31T16:42:55.841Z,10.40
2024-03-31T16:45:25.512Z,13.30
2024-03-31T16:47:55.171Z,12.00
2024-03-31T16:50:26.313Z,14.00
2024-03-31T16:52:55.852Z,16.00
2024-03-31T16:55:25.397Z,14.60
2024-03-31T16:57:55.158Z,15.20
2024-03-31T17:00:25.218Z,13.50
2024-03-31T17:02:54.634Z,19.20
2024-03-31T17:05:24.148Z,18.70
2024-03-31T17:07:54.750Z,13.80
2024-03-31T17:10:24.407Z,10.10
2024-03-31T17:12:53.852Z,12.50
2024-03-31T17:15:23.349Z,11.60
2024-03-31T17:17:53.135Z,12.40
2024-03-31T17:20:22.858Z,9.70
2024-03-31T17:22:52.297Z,15.70
2024-03-31T17:25:21.879Z,19.60
2024-03-31T17:27:51.934Z,13.80
2024-03-31T17:30:21.363Z,9.10
2024-03-31T17:32:50.950Z,18.70
2024-03-31T17:35:20.560Z,15.00
2024-03-31T17:37:50.110Z,15.40
2024-03-31T17:40:20.416Z,15.30
2024-03-31T17:42:49.846Z,15.90
2024-03-31T17:45:22.719Z,21.00
2024-03-31T17:47:52.318Z,16.90
2024-03-31T17:50:21.771Z,22.70
2024-03-31T17:52:51.131Z,25.20
2024-03-31T17:55:20.887Z,26.90
2024-03-31T17:57:50.826Z,19.40
2024-03-31T18:00:22.793Z,28.70
2024-03-31T18:02:52.287Z,16.80
2024-03-31T18:05:21.677Z,17.00
2024-03-31T18:07:51.278Z,18.60
2024-03-31T18:10:20.764Z,22.00
2024-03-31T18:12:50.504Z,12.70
2024-03-31T18:15:22.011Z,11.20
2024-03-31T18:17:51.495Z,9.40
2024-03-31T18:20:22.588Z,14.30
2024-03-31T18:22:52.389Z,9.30
2024-03-31T18:25:21.915Z,11.60
2024-03-31T18:27:51.437Z,11.70
2024-03-31T18:30:21.076Z,14.90
2024-03-31T18:32:51.702Z,10.10
2024-03-31T18:35:21.233Z,15.90
2024-03-31T18:37:50.949Z,10.60
2024-03-31T18:40:21.707Z,10.00
2024-03-31T18:42:51.208Z,14.30
2024-03-31T18:45:20.665Z,8.60
2024-03-31T18:47:51.294Z,8.90
2024-03-31T18:50:21.235Z,7.80
2024-03-31T18:52:50.728Z,11.70
2024-03-31T18:55:20.558Z,10.70
2024-03-31T18:57:50.155Z,9.30
2024-03-31T19:00:20.004Z,13.90
2024-03-31T19:02:56.042Z,12.50
2024-03-31T19:05:25.810Z,14.80
2024-03-31T19:07:55.226Z,15.00
2024-03-31T19:10:25.377Z,11.50
2024-03-31T19:12:55.199Z,13.30
2024-03-31T19:15:24.661Z,7.10
2024-03-31T19:17:54.315Z,8.90
2024-03-31T19:20:23.780Z,7.70
2024-03-31T19:22:53.605Z,7.30
2024-03-31T19:25:23.187Z,6.70
2024-03-31T19:27:54.703Z,5.60
2024-03-31T19:30:24.777Z,9.20
2024-03-31T19:32:53.179Z,6.60
2024-03-31T19:35:22.775Z,8.40
2024-03-31T19:37:55.646Z,7.40
2024-03-31T19:40:25.264Z,8.00
2024-03-31T19:42:54.773Z,8.20
2024-03-31T19:45:24.527Z,7.20
2024-03-31T19:47:54.031Z,8.00
2024-03-31T19:50:23.718Z,3.60
2024-03-31T19:52:55.894Z,6.00
2024-03-31T19:55:25.669Z,6.40
2024-03-31T19:57:58.133Z,6.50
2024-03-31T20:00:29.439Z,6.20
2024-03-31T20:02:59.024Z,5.60
2024-03-31T20:05:29.082Z,6.20
2024-03-31T20:07:59.031Z,5.10
2024-03-31T20:10:28.698Z,6.00
2024-03-31T20:12:59.592Z,6.30
2024-03-31T20:15:29.104Z,3.90
2024-03-31T20:17:58.471Z,8.80
2024-03-31T20:20:27.986Z,5.50
2024-03-31T20:22:57.703Z,7.00
2024-03-31T20:25:27.116Z,4.30
2024-03-31T20:27:56.863Z,6.10
2024-03-31T20:30:26.526Z,8.20
2024-03-31T20:32:56.521Z,6.50
2024-03-31T20:35:26.018Z,4.30
2024-03-31T20:37:56.510Z,5.60
2024-03-31T20:40:27.224Z,4.00
2024-03-31T20:42:56.704Z,7.50
2024-03-31T20:45:26.180Z,9.10
2024-03-31T20:47:55.950Z,6.00
2024-03-31T20:50:25.353Z,4.40
2024-03-31T20:52:56.232Z,4.80
2024-03-31T20:55:25.680Z,4.80
2024-03-31T20:57:55.861Z,5.70
2024-03-31T21:00:25.680Z,5.00
2024-03-31T21:02:55.431Z,12.30
2024-03-31T21:05:24.990Z,8.10
2024-03-31T21:07:54.407Z,8.90
2024-03-31T21:10:24.221Z,9.30
2024-03-31T21:12:53.758Z,8.60
2024-03-31T21:15:23.224Z,8.10
2024-03-31T21:17:56.203Z,6.20
2024-03-31T21:20:25.628Z,5.20
2024-03-31T21:22:57.535Z,7.20
2024-03-31T21:25:27.242Z,8.50
2024-03-31T21:27:56.764Z,7.70
2024-03-31T21:30:27.668Z,11.10
2024-03-31T21:32:57.135Z,9.20
2024-03-31T21:35:33.049Z,8.00
2024-03-31T21:38:02.582Z,10.10
2024-03-31T21:40:32.124Z,8.80
2024-03-31T21:43:01.791Z,6.70
2024-03-31T21:45:31.286Z,6.90
2024-03-31T21:48:00.714Z,7.00
2024-03-31T21:50:30.448Z,4.90
2024-03-31T21:53:00.054Z,6.80
2024-03-31T21:55:29.742Z,5.20
2024-03-31T21:57:59.280Z,9.10
2024-03-31T22:00:29.789Z,7.20
2024-03-31T22:02:59.340Z,7.30
2024-03-31T22:05:28.907Z,6.40
2024-03-31T22:07:58.397Z,7.50
2024-03-31T22:10:27.957Z,6.10
2024-03-31T22:12:59.519Z,4.70
2024-03-31T22:15:29.704Z,3.50
2024-03-31T22:17:59.468Z,5.70
2024-03-31T22:20:30.410Z,7.60
2024-03-31T22:22:59.919Z,5.60
2024-03-31T22:25:30.214Z,7.00
2024-03-31T22:27:59.882Z,6.80
2024-03-31T22:30:29.220Z,7.70
2024-03-31T22:32:58.955Z,4.00
2024-03-31T22:35:28.472Z,5.50
2024-03-31T22:37:58.570Z,6.90
2024-03-31T22:40:28.048Z,9.60
2024-03-31T22:42:57.646Z,7.50
2024-03-31T22:45:27.327Z,4.90
2024-03-31T22:47:57.185Z,9.90
2024-03-31T22:50:26.796Z,6.80
2024-03-31T22:52:56.444Z,7.90
2024-03-31T22:55:26.610Z,9.30
2024-03-31T22:57:57.241Z,8.10
2024-03-31T23:00:26.707Z,6.70
2024-03-31T23:02:56.205Z,5.90
2024-03-31T23:05:25.953Z,4.20
2024-03-31T23:07:55.436Z,5.80
2024-03-31T23:10:25.015Z,10.20
2024-03-31T23:12:54.453Z,5.90
2024-03-31T23:15:25.312Z,5.40
2024-03-31T23:17:54.748Z,9.90
2024-03-31T23:20:25.842Z,12.00
2024-03-31T23:22:56.639Z,4.90
2024-03-31T23:25:26.287Z,9.30
2024-03-31T23:27:55.731Z,8.70
2024-03-31T23:30:26.682Z,7.50
2024-03-31T23:32:58.604Z,8.20
2024-03-31T23:35:28.207Z,5.50
2024-03-31T23:37:58.692Z,7.60
2024-03-31T23:40:28.221Z,7.20
2024-03-31T23:42:57.931Z,9.30
2024-03-31T23:45:32.136Z,3.90
2024-03-31T23:48:01.669Z,7.70
2024-03-31T23:50:31.174Z,9.10
2024-03-31T23:53:00.697Z,14.70
2024-03-31T23:55:30.261Z,10.80
2024-03-31T23:57:59.863Z,7.80
